Hawk — LAGF7 — position and weather

sailwx.info

Track history (hours):
 
Tides and Currents Weather Stations Pressure Air Temp Water Temp Dewpoint Dewpoint Depression Visibility Wind Speed Wind Dir Waves Ship Positions

Hawk

Last reported at 2016-Apr-22 08:12 UTC. Time now 2016-Apr-30 18:46 UTC.
Position N 13°45' W 018°15'.
Warning: this ship's position is 8 days out of date.

Length 223 m; draft 10.7 m.

Type: Cargo ship. MMSI: 259848000.

Date/timePositionNaut miles runAvg speedWind from/ knotsBaromVisibWave heightAir tempDewpointWater temp
2016-Apr-22 08:12N 13°45' W 018°15'812.5
2016-Apr-22 07:32N 13°54' W 018°15'8912.1
2016-Apr-22 00:13N 15°22' W 018°15'3312.3
2016-Apr-21 21:32N 15°55' W 018°15'3712.3
2016-Apr-21 18:31N 16°32' W 018°15'1412.2
2016-Apr-21 17:25N 16°46' W 018°15'  
2016-Apr-19 03:33N 28°05' W 013°42'1312.7
2016-Apr-19 02:32N 28°16' W 013°33'1212.7
2016-Apr-19 01:33N 28°26' W 013°25'1312.6
2016-Apr-19 00:33N 28°37' W 013°18'1312.6
2016-Apr-18 23:33N 28°47' W 013°10'1212.4
2016-Apr-18 22:34N 28°58' W 013°02'56411.5
2016-Apr-16 21:26N 35°57' W 005°35'9 9.7
2016-Apr-16 20:34N 36°01' W 005°25'8 7.5
2016-Apr-16 19:33N 36°08' W 005°24'0 0.1
2016-Apr-16 18:33N 36°08' W 005°24'0 0.1
2016-Apr-16 17:33N 36°08' W 005°24'0 0.0
2016-Apr-16 16:33N 36°08' W 005°24'0 0.0
2016-Apr-16 15:33N 36°08' W 005°24'0 0.1
2016-Apr-16 14:32N 36°08' W 005°24'0 0.1
2016-Apr-16 13:34N 36°08' W 005°24'0 0.1
2016-Apr-16 12:34N 36°08' W 005°24'0 0.0
2016-Apr-16 11:29N 36°08' W 005°24'0 0.0
2016-Apr-16 10:33N 36°08' W 005°24'0 0.0
2016-Apr-16 09:33N 36°08' W 005°24'0 0.1
2016-Apr-16 08:29N 36°08' W 005°25'0 0.1
2016-Apr-16 07:34N 36°08' W 005°25'0 0.0
2016-Apr-16 06:34N 36°08' W 005°25'1 1.0
2016-Apr-16 05:33N 36°08' W 005°24'5 5.2
2016-Apr-16 04:34N 36°03' W 005°21'5 5.3
2016-Apr-16 03:34N 35°58' W 005°24'238 9.9
2016-Apr-15 03:32N 37°29' W 009°58'  
Track history (hours):
 
Tides and Currents Weather Stations Pressure Air Temp Water Temp Dewpoint Dewpoint Depression Visibility Wind Speed Wind Dir Waves Ship Positions

Hawk

Last reported at 2016-Apr-22 08:12 UTC. Time now 2016-Apr-30 18:46 UTC.
Position N 13°45' W 018°15'.
Warning: this ship's position is 8 days out of date.

Length 223 m; draft 10.7 m.

Type: Cargo ship. MMSI: 259848000.

Date/timePositionNaut miles runAvg speedWind from/ knotsBaromVisibWave heightAir tempDewpointWater temp
2016-Apr-22 08:12N 13°45' W 018°15'812.5
2016-Apr-22 07:32N 13°54' W 018°15'8912.1
2016-Apr-22 00:13N 15°22' W 018°15'3312.3
2016-Apr-21 21:32N 15°55' W 018°15'3712.3
2016-Apr-21 18:31N 16°32' W 018°15'1412.2
2016-Apr-21 17:25N 16°46' W 018°15'  
2016-Apr-19 03:33N 28°05' W 013°42'1312.7
2016-Apr-19 02:32N 28°16' W 013°33'1212.7
2016-Apr-19 01:33N 28°26' W 013°25'1312.6
2016-Apr-19 00:33N 28°37' W 013°18'1312.6
2016-Apr-18 23:33N 28°47' W 013°10'1212.4
2016-Apr-18 22:34N 28°58' W 013°02'56411.5
2016-Apr-16 21:26N 35°57' W 005°35'9 9.7
2016-Apr-16 20:34N 36°01' W 005°25'8 7.5
2016-Apr-16 19:33N 36°08' W 005°24'0 0.1
2016-Apr-16 18:33N 36°08' W 005°24'0 0.1
2016-Apr-16 17:33N 36°08' W 005°24'0 0.0
2016-Apr-16 16:33N 36°08' W 005°24'0 0.0
2016-Apr-16 15:33N 36°08' W 005°24'0 0.1
2016-Apr-16 14:32N 36°08' W 005°24'0 0.1
2016-Apr-16 13:34N 36°08' W 005°24'0 0.1
2016-Apr-16 12:34N 36°08' W 005°24'0 0.0
2016-Apr-16 11:29N 36°08' W 005°24'0 0.0
2016-Apr-16 10:33N 36°08' W 005°24'0 0.0
2016-Apr-16 09:33N 36°08' W 005°24'0 0.1
2016-Apr-16 08:29N 36°08' W 005°25'0 0.1
2016-Apr-16 07:34N 36°08' W 005°25'0 0.0
2016-Apr-16 06:34N 36°08' W 005°25'1 1.0
2016-Apr-16 05:33N 36°08' W 005°24'5 5.2
2016-Apr-16 04:34N 36°03' W 005°21'5 5.3
2016-Apr-16 03:34N 35°58' W 005°24'238 9.9
2016-Apr-15 03:32N 37°29' W 009°58'  

Dump ship's entire track history